sensor_id;sensor_type;location;lat;lon;timestamp;temperature;humidity
37786;DHT22;23625;48.784;9.336;2022-11-20T00:01:21;4.90;99.90
37786;DHT22;23625;48.784;9.336;2022-11-20T00:03:47;4.90;99.90
37786;DHT22;23625;48.784;9.336;2022-11-20T00:06:15;4.90;99.90
37786;DHT22;23625;48.784;9.336;2022-11-20T00:08:41;4.80;99.90
37786;DHT22;23625;48.784;9.336;2022-11-20T00:11:12;4.80;99.90
37786;DHT22;23625;48.784;9.336;2022-11-20T00:13:38;4.90;99.90
37786;DHT22;23625;48.784;9.336;2022-11-20T00:16:06;4.90;99.90
37786;DHT22;23625;48.784;9.336;2022-11-20T00:18:33;4.90;99.90
37786;DHT22;23625;48.784;9.336;2022-11-20T00:21:07;4.90;99.90
37786;DHT22;23625;48.784;9.336;2022-11-20T00:23:33;5.00;99.90
37786;DHT22;23625;48.784;9.336;2022-11-20T00:26:03;5.00;99.90
37786;DHT22;23625;48.784;9.336;2022-11-20T00:28:29;5.00;99.90
37786;DHT22;23625;48.784;9.336;2022-11-20T00:31:15;5.00;99.90
37786;DHT22;23625;48.784;9.336;2022-11-20T00:33:41;5.00;99.90
37786;DHT22;23625;48.784;9.336;2022-11-20T00:36:13;5.00;99.90
37786;DHT22;23625;48.784;9.336;2022-11-20T00:38:39;5.10;99.90
37786;DHT22;23625;48.784;9.336;2022-11-20T00:41:07;5.20;99.90
37786;DHT22;23625;48.784;9.336;2022-11-20T00:43:33;5.20;99.90
37786;DHT22;23625;48.784;9.336;2022-11-20T00:45:59;5.30;99.90
37786;DHT22;23625;48.784;9.336;2022-11-20T00:48:25;5.30;99.90
37786;DHT22;23625;48.784;9.336;2022-11-20T00:50:52;5.30;99.90
37786;DHT22;23625;48.784;9.336;2022-11-20T00:53:17;5.30;99.90
37786;DHT22;23625;48.784;9.336;2022-11-20T00:55:43;5.30;99.90
37786;DHT22;23625;48.784;9.336;2022-11-20T00:58:17;5.30;99.90
37786;DHT22;23625;48.784;9.336;2022-11-20T01:00:42;5.30;99.90
37786;DHT22;23625;48.784;9.336;2022-11-20T01:03:08;5.30;99.90
37786;DHT22;23625;48.784;9.336;2022-11-20T01:05:34;5.40;99.90
37786;DHT22;23625;48.784;9.336;2022-11-20T01:08:00;5.50;99.90
37786;DHT22;23625;48.784;9.336;2022-11-20T01:10:26;5.50;99.90
37786;DHT22;23625;48.784;9.336;2022-11-20T01:12:52;5.50;99.90
37786;DHT22;23625;48.784;9.336;2022-11-20T01:15:37;5.40;99.90
37786;DHT22;23625;48.784;9.336;2022-11-20T01:18:03;5.50;99.90
37786;DHT22;23625;48.784;9.336;2022-11-20T01:20:28;5.50;99.90
37786;DHT22;23625;48.784;9.336;2022-11-20T01:22:54;5.50;99.90
37786;DHT22;23625;48.784;9.336;2022-11-20T01:25:20;5.60;99.90
37786;DHT22;23625;48.784;9.336;2022-11-20T01:27:45;5.60;99.90
37786;DHT22;23625;48.784;9.336;2022-11-20T01:30:11;5.60;99.90
37786;DHT22;23625;48.784;9.336;2022-11-20T01:32:37;5.60;99.90
37786;DHT22;23625;48.784;9.336;2022-11-20T01:35:03;5.50;99.90
37786;DHT22;23625;48.784;9.336;2022-11-20T01:37:28;5.60;99.90
37786;DHT22;23625;48.784;9.336;2022-11-20T01:39:54;5.60;99.90
37786;DHT22;23625;48.784;9.336;2022-11-20T01:42:20;5.70;99.90
37786;DHT22;23625;48.784;9.336;2022-11-20T01:48:08;5.60;99.90
37786;DHT22;23625;48.784;9.336;2022-11-20T01:50:34;5.70;99.90
37786;DHT22;23625;48.784;9.336;2022-11-20T01:53:03;5.70;99.90
37786;DHT22;23625;48.784;9.336;2022-11-20T01:55:36;5.70;99.90
37786;DHT22;23625;48.784;9.336;2022-11-20T01:58:05;5.60;99.90
37786;DHT22;23625;48.784;9.336;2022-11-20T02:00:31;5.60;99.90
37786;DHT22;23625;48.784;9.336;2022-11-20T02:02:59;5.60;99.90
37786;DHT22;23625;48.784;9.336;2022-11-20T02:05:28;5.60;99.90
37786;DHT22;23625;48.784;9.336;2022-11-20T02:07:56;5.50;99.90
37786;DHT22;23625;48.784;9.336;2022-11-20T02:10:22;5.50;99.90
37786;DHT22;23625;48.784;9.336;2022-11-20T02:12:48;5.50;99.90
37786;DHT22;23625;48.784;9.336;2022-11-20T02:15:33;5.50;99.90
37786;DHT22;23625;48.784;9.336;2022-11-20T02:17:59;5.50;99.90
37786;DHT22;23625;48.784;9.336;2022-11-20T02:20:25;5.40;99.90
37786;DHT22;23625;48.784;9.336;2022-11-20T02:23:04;5.40;99.90
37786;DHT22;23625;48.784;9.336;2022-11-20T02:25:31;5.40;99.90
37786;DHT22;23625;48.784;9.336;2022-11-20T02:27:58;5.50;99.90
37786;DHT22;23625;48.784;9.336;2022-11-20T02:30:24;5.40;99.90
37786;DHT22;23625;48.784;9.336;2022-11-20T02:32:49;5.50;99.90
37786;DHT22;23625;48.784;9.336;2022-11-20T02:37:43;5.40;99.90
37786;DHT22;23625;48.784;9.336;2022-11-20T02:40:10;5.50;99.90
37786;DHT22;23625;48.784;9.336;2022-11-20T02:42:37;5.50;99.90
37786;DHT22;23625;48.784;9.336;2022-11-20T02:45:04;5.50;99.90
37786;DHT22;23625;48.784;9.336;2022-11-20T02:47:29;5.50;99.90
37786;DHT22;23625;48.784;9.336;2022-11-20T02:49:55;5.50;99.90
37786;DHT22;23625;48.784;9.336;2022-11-20T02:52:20;5.40;99.90
37786;DHT22;23625;48.784;9.336;2022-11-20T02:54:46;5.50;99.90
37786;DHT22;23625;48.784;9.336;2022-11-20T02:57:12;5.50;99.90
37786;DHT22;23625;48.784;9.336;2022-11-20T02:59:37;5.50;99.90
37786;DHT22;23625;48.784;9.336;2022-11-20T03:02:03;5.50;99.90
37786;DHT22;23625;48.784;9.336;2022-11-20T03:04:28;5.50;99.90
37786;DHT22;23625;48.784;9.336;2022-11-20T03:06:54;5.50;99.90
37786;DHT22;23625;48.784;9.336;2022-11-20T03:09:20;5.40;99.90
37786;DHT22;23625;48.784;9.336;2022-11-20T03:11:45;5.50;99.90
37786;DHT22;23625;48.784;9.336;2022-11-20T03:14:11;5.50;99.90
37786;DHT22;23625;48.784;9.336;2022-11-20T03:16:36;5.50;99.90
37786;DHT22;23625;48.784;9.336;2022-11-20T03:19:02;5.50;99.90
37786;DHT22;23625;48.784;9.336;2022-11-20T03:21:28;5.50;99.90
37786;DHT22;23625;48.784;9.336;2022-11-20T03:23:54;5.50;99.90
37786;DHT22;23625;48.784;9.336;2022-11-20T03:26:22;5.60;99.90
37786;DHT22;23625;48.784;9.336;2022-11-20T03:28:53;5.60;99.90
37786;DHT22;23625;48.784;9.336;2022-11-20T03:31:21;5.60;99.90
37786;DHT22;23625;48.784;9.336;2022-11-20T03:33:47;5.60;99.90
37786;DHT22;23625;48.784;9.336;2022-11-20T03:36:15;5.60;99.90
37786;DHT22;23625;48.784;9.336;2022-11-20T03:38:42;5.60;99.90
37786;DHT22;23625;48.784;9.336;2022-11-20T03:41:10;5.60;99.90
37786;DHT22;23625;48.784;9.336;2022-11-20T03:43:36;5.60;99.90
37786;DHT22;23625;48.784;9.336;2022-11-20T03:46:03;5.50;99.90
37786;DHT22;23625;48.784;9.336;2022-11-20T03:48:29;5.50;99.90
37786;DHT22;23625;48.784;9.336;2022-11-20T03:51:14;5.50;99.90
37786;DHT22;23625;48.784;9.336;2022-11-20T03:53:42;5.50;99.90
37786;DHT22;23625;48.784;9.336;2022-11-20T03:56:08;5.50;99.90
37786;DHT22;23625;48.784;9.336;2022-11-20T03:58:35;5.50;99.90
37786;DHT22;23625;48.784;9.336;2022-11-20T04:01:16;5.50;99.90
37786;DHT22;23625;48.784;9.336;2022-11-20T04:03:43;5.50;99.90
37786;DHT22;23625;48.784;9.336;2022-11-20T04:06:15;5.50;99.90
37786;DHT22;23625;48.784;9.336;2022-11-20T04:08:41;5.50;99.90
37786;DHT22;23625;48.784;9.336;2022-11-20T04:13:39;5.50;99.90
37786;DHT22;23625;48.784;9.336;2022-11-20T04:16:06;5.50;99.90
37786;DHT22;23625;48.784;9.336;2022-11-20T04:18:32;5.40;99.90
37786;DHT22;23625;48.784;9.336;2022-11-20T04:20:58;5.50;99.90
37786;DHT22;23625;48.784;9.336;2022-11-20T04:23:24;5.40;99.90
37786;DHT22;23625;48.784;9.336;2022-11-20T04:25:50;5.40;99.90
37786;DHT22;23625;48.784;9.336;2022-11-20T04:28:15;5.40;99.90
37786;DHT22;23625;48.784;9.336;2022-11-20T04:30:41;5.50;99.90
37786;DHT22;23625;48.784;9.336;2022-11-20T04:33:07;5.50;99.90
37786;DHT22;23625;48.784;9.336;2022-11-20T04:35:36;5.50;99.90
37786;DHT22;23625;48.784;9.336;2022-11-20T04:38:02;5.60;99.90
37786;DHT22;23625;48.784;9.336;2022-11-20T04:40:29;5.50;99.90
37786;DHT22;23625;48.784;9.336;2022-11-20T04:42:55;5.50;99.90
37786;DHT22;23625;48.784;9.336;2022-11-20T04:45:21;5.60;99.90
37786;DHT22;23625;48.784;9.336;2022-11-20T04:47:47;5.60;99.90
37786;DHT22;23625;48.784;9.336;2022-11-20T04:50:13;5.50;99.90
37786;DHT22;23625;48.784;9.336;2022-11-20T04:52:38;5.50;99.90
37786;DHT22;23625;48.784;9.336;2022-11-20T04:55:04;5.70;99.90
37786;DHT22;23625;48.784;9.336;2022-11-20T04:57:30;5.60;99.90
37786;DHT22;23625;48.784;9.336;2022-11-20T04:59:55;5.60;99.90
37786;DHT22;23625;48.784;9.336;2022-11-20T05:02:21;5.60;99.90
37786;DHT22;23625;48.784;9.336;2022-11-20T05:04:47;5.60;99.90
37786;DHT22;23625;48.784;9.336;2022-11-20T05:07:12;5.70;99.90
37786;DHT22;23625;48.784;9.336;2022-11-20T05:09:38;5.60;99.90
37786;DHT22;23625;48.784;9.336;2022-11-20T05:12:04;5.60;99.90
37786;DHT22;23625;48.784;9.336;2022-11-20T05:14:29;5.60;99.90
37786;DHT22;23625;48.784;9.336;2022-11-20T05:16:55;5.60;99.90
37786;DHT22;23625;48.784;9.336;2022-11-20T08:06:56;6.50;99.90
37786;DHT22;23625;48.784;9.336;2022-11-20T08:09:21;6.50;99.90
37786;DHT22;23625;48.784;9.336;2022-11-20T08:11:47;6.50;99.90
37786;DHT22;23625;48.784;9.336;2022-11-20T08:14:31;6.50;99.90
37786;DHT22;23625;48.784;9.336;2022-11-20T08:16:57;6.40;99.90
37786;DHT22;23625;48.784;9.336;2022-11-20T08:19:22;6.40;99.90
37786;DHT22;23625;48.784;9.336;2022-11-20T08:21:48;6.50;99.90
37786;DHT22;23625;48.784;9.336;2022-11-20T08:24:14;6.50;99.90
37786;DHT22;23625;48.784;9.336;2022-11-20T08:26:40;6.50;99.90
37786;DHT22;23625;48.784;9.336;2022-11-20T08:29:06;6.50;99.90
37786;DHT22;23625;48.784;9.336;2022-11-20T08:31:33;6.50;99.90
37786;DHT22;23625;48.784;9.336;2022-11-20T08:33:58;6.60;99.90
37786;DHT22;23625;48.784;9.336;2022-11-20T08:36:24;6.60;99.90
37786;DHT22;23625;48.784;9.336;2022-11-20T08:38:51;6.60;99.90
37786;DHT22;23625;48.784;9.336;2022-11-20T08:41:17;6.60;99.90
37786;DHT22;23625;48.784;9.336;2022-11-20T08:43:51;6.70;99.90
37786;DHT22;23625;48.784;9.336;2022-11-20T08:46:17;6.70;99.90
37786;DHT22;23625;48.784;9.336;2022-11-20T08:48:43;6.70;99.90
37786;DHT22;23625;48.784;9.336;2022-11-20T08:51:09;6.70;99.90
37786;DHT22;23625;48.784;9.336;2022-11-20T08:53:35;6.80;99.90
37786;DHT22;23625;48.784;9.336;2022-11-20T08:56:00;6.80;99.90
37786;DHT22;23625;48.784;9.336;2022-11-20T08:58:26;6.80;99.90
37786;DHT22;23625;48.784;9.336;2022-11-20T09:00:52;6.80;99.90
37786;DHT22;23625;48.784;9.336;2022-11-20T09:03:18;6.80;99.90
37786;DHT22;23625;48.784;9.336;2022-11-20T09:05:44;6.80;99.90
37786;DHT22;23625;48.784;9.336;2022-11-20T09:08:09;6.90;99.90
37786;DHT22;23625;48.784;9.336;2022-11-20T09:10:35;6.90;99.90
37786;DHT22;23625;48.784;9.336;2022-11-20T09:13:02;7.00;99.90
37786;DHT22;23625;48.784;9.336;2022-11-20T09:15:27;7.10;99.90
37786;DHT22;23625;48.784;9.336;2022-11-20T09:17:54;7.10;99.90
37786;DHT22;23625;48.784;9.336;2022-11-20T09:20:20;7.10;99.90
37786;DHT22;23625;48.784;9.336;2022-11-20T09:22:46;7.10;99.90
37786;DHT22;23625;48.784;9.336;2022-11-20T09:25:11;7.10;99.90
37786;DHT22;23625;48.784;9.336;2022-11-20T09:27:37;7.20;99.90
37786;DHT22;23625;48.784;9.336;2022-11-20T09:30:03;7.10;99.90
37786;DHT22;23625;48.784;9.336;2022-11-20T09:32:29;7.10;99.90
37786;DHT22;23625;48.784;9.336;2022-11-20T09:34:54;7.20;99.90
37786;DHT22;23625;48.784;9.336;2022-11-20T09:37:20;7.30;99.90
37786;DHT22;23625;48.784;9.336;2022-11-20T09:39:46;7.30;99.90
37786;DHT22;23625;48.784;9.336;2022-11-20T09:42:32;7.30;99.90
37786;DHT22;23625;48.784;9.336;2022-11-20T09:54:11;7.40;99.90
37786;DHT22;23625;48.784;9.336;2022-11-20T09:56:42;7.30;99.90
37786;DHT22;23625;48.784;9.336;2022-11-20T09:59:29;7.40;99.90
37786;DHT22;23625;48.784;9.336;2022-11-20T10:01:57;7.50;99.90
37786;DHT22;23625;48.784;9.336;2022-11-20T10:04:24;7.50;99.90
37786;DHT22;23625;48.784;9.336;2022-11-20T10:07:04;7.60;99.90
37786;DHT22;23625;48.784;9.336;2022-11-20T10:09:38;7.60;99.90
37786;DHT22;23625;48.784;9.336;2022-11-20T10:12:21;7.70;99.90
37786;DHT22;23625;48.784;9.336;2022-11-20T10:14:55;7.70;99.90
37786;DHT22;23625;48.784;9.336;2022-11-20T10:17:58;7.70;99.90
37786;DHT22;23625;48.784;9.336;2022-11-20T10:26:16;7.70;99.90
37786;DHT22;23625;48.784;9.336;2022-11-20T10:29:09;7.60;99.90
37786;DHT22;23625;48.784;9.336;2022-11-20T10:31:36;7.70;99.90
37786;DHT22;23625;48.784;9.336;2022-11-20T10:34:07;7.70;99.90
37786;DHT22;23625;48.784;9.336;2022-11-20T10:36:45;7.80;99.90
37786;DHT22;23625;48.784;9.336;2022-11-20T10:39:22;7.80;99.90
37786;DHT22;23625;48.784;9.336;2022-11-20T10:41:52;7.80;99.90
37786;DHT22;23625;48.784;9.336;2022-11-20T10:44:21;7.70;99.90
37786;DHT22;23625;48.784;9.336;2022-11-20T10:47:12;7.60;99.90
37786;DHT22;23625;48.784;9.336;2022-11-20T10:49:39;7.60;99.90
37786;DHT22;23625;48.784;9.336;2022-11-20T10:52:26;7.50;99.90
37786;DHT22;23625;48.784;9.336;2022-11-20T10:55:03;7.50;99.90
37786;DHT22;23625;48.784;9.336;2022-11-20T11:00:03;7.40;99.90
37786;DHT22;23625;48.784;9.336;2022-11-20T11:07:55;7.30;99.90
37786;DHT22;23625;48.784;9.336;2022-11-20T11:10:25;7.40;99.90
37786;DHT22;23625;48.784;9.336;2022-11-20T11:12:52;7.30;99.90
37786;DHT22;23625;48.784;9.336;2022-11-20T11:15:44;7.20;99.90
37786;DHT22;23625;48.784;9.336;2022-11-20T11:18:10;7.20;99.90
37786;DHT22;23625;48.784;9.336;2022-11-20T11:20:37;7.10;99.90
37786;DHT22;23625;48.784;9.336;2022-11-20T11:23:03;7.10;99.90
37786;DHT22;23625;48.784;9.336;2022-11-20T11:25:35;7.10;99.90
37786;DHT22;23625;48.784;9.336;2022-11-20T11:28:04;7.10;99.90
37786;DHT22;23625;48.784;9.336;2022-11-20T11:30:41;7.00;99.90
37786;DHT22;23625;48.784;9.336;2022-11-20T11:33:11;7.00;99.90
37786;DHT22;23625;48.784;9.336;2022-11-20T11:35:55;7.10;99.90
37786;DHT22;23625;48.784;9.336;2022-11-20T11:38:34;7.10;99.90
37786;DHT22;23625;48.784;9.336;2022-11-20T11:41:02;7.10;99.90
37786;DHT22;23625;48.784;9.336;2022-11-20T11:43:30;7.20;99.90
37786;DHT22;23625;48.784;9.336;2022-11-20T11:54:15;8.20;99.90
37786;DHT22;23625;48.784;9.336;2022-11-20T11:56:42;8.50;99.90
37786;DHT22;23625;48.784;9.336;2022-11-20T11:59:12;8.60;99.90
37786;DHT22;23625;48.784;9.336;2022-11-20T12:01:46;8.60;99.90
37786;DHT22;23625;48.784;9.336;2022-11-20T12:07:41;8.40;99.90
37786;DHT22;23625;48.784;9.336;2022-11-20T12:10:23;8.50;99.90
37786;DHT22;23625;48.784;9.336;2022-11-20T12:13:11;8.50;99.90
37786;DHT22;23625;48.784;9.336;2022-11-20T12:15:44;8.60;99.90
37786;DHT22;23625;48.784;9.336;2022-11-20T12:18:15;8.80;99.90
37786;DHT22;23625;48.784;9.336;2022-11-20T12:20:45;8.90;99.90
37786;DHT22;23625;48.784;9.336;2022-11-20T12:26:17;8.70;99.90
37786;DHT22;23625;48.784;9.336;2022-11-20T12:31:25;8.50;99.90
37786;DHT22;23625;48.784;9.336;2022-11-20T12:34:06;8.50;99.90
37786;DHT22;23625;48.784;9.336;2022-11-20T12:36:48;8.70;99.90
37786;DHT22;23625;48.784;9.336;2022-11-20T12:39:34;8.90;99.90
37786;DHT22;23625;48.784;9.336;2022-11-20T13:02:30;10.60;99.90
37786;DHT22;23625;48.784;9.336;2022-11-20T13:05:24;10.60;99.90
37786;DHT22;23625;48.784;9.336;2022-11-20T13:07:53;10.80;99.90
37786;DHT22;23625;48.784;9.336;2022-11-20T13:18:39;11.10;96.00
37786;DHT22;23625;48.784;9.336;2022-11-20T13:21:15;11.30;96.30
37786;DHT22;23625;48.784;9.336;2022-11-20T13:23:41;11.40;89.30
37786;DHT22;23625;48.784;9.336;2022-11-20T13:26:16;11.50;90.30
37786;DHT22;23625;48.784;9.336;2022-11-20T13:28:42;11.50;90.00
37786;DHT22;23625;48.784;9.336;2022-11-20T13:31:47;11.40;83.30
37786;DHT22;23625;48.784;9.336;2022-11-20T13:34:23;10.90;82.70
37786;DHT22;23625;48.784;9.336;2022-11-20T13:36:57;10.60;85.20
37786;DHT22;23625;48.784;9.336;2022-11-20T13:39:27;10.40;91.70
37786;DHT22;23625;48.784;9.336;2022-11-20T13:41:57;10.30;91.80
37786;DHT22;23625;48.784;9.336;2022-11-20T13:44:33;10.10;96.10
37786;DHT22;23625;48.784;9.336;2022-11-20T13:47:00;9.90;96.20
37786;DHT22;23625;48.784;9.336;2022-11-20T13:49:33;9.90;94.30
37786;DHT22;23625;48.784;9.336;2022-11-20T13:52:24;10.00;93.10
37786;DHT22;23625;48.784;9.336;2022-11-20T14:00:44;10.00;92.20
37786;DHT22;23625;48.784;9.336;2022-11-20T14:03:19;9.80;94.50
37786;DHT22;23625;48.784;9.336;2022-11-20T14:05:59;9.80;91.90
37786;DHT22;23625;48.784;9.336;2022-11-20T14:08:40;9.80;91.60
37786;DHT22;23625;48.784;9.336;2022-11-20T14:11:21;9.70;94.60
37786;DHT22;23625;48.784;9.336;2022-11-20T14:13:57;9.60;96.50
37786;DHT22;23625;48.784;9.336;2022-11-20T14:16:25;9.60;94.70
37786;DHT22;23625;48.784;9.336;2022-11-20T14:18:51;9.50;96.20
37786;DHT22;23625;48.784;9.336;2022-11-20T14:23:52;9.40;98.00
37786;DHT22;23625;48.784;9.336;2022-11-20T14:26:18;9.40;99.10
37786;DHT22;23625;48.784;9.336;2022-11-20T14:28:50;9.30;95.70
37786;DHT22;23625;48.784;9.336;2022-11-20T14:31:26;9.20;98.80
37786;DHT22;23625;48.784;9.336;2022-11-20T14:33:54;9.00;99.90
37786;DHT22;23625;48.784;9.336;2022-11-20T14:36:22;9.00;99.50
37786;DHT22;23625;48.784;9.336;2022-11-20T14:38:50;9.00;99.90
37786;DHT22;23625;48.784;9.336;2022-11-20T14:41:21;8.90;99.90
37786;DHT22;23625;48.784;9.336;2022-11-20T14:43:56;8.80;99.90
37786;DHT22;23625;48.784;9.336;2022-11-20T14:46:23;8.80;99.90
37786;DHT22;23625;48.784;9.336;2022-11-20T14:48:55;8.60;99.90
37786;DHT22;23625;48.784;9.336;2022-11-20T14:51:36;8.60;99.90
37786;DHT22;23625;48.784;9.336;2022-11-20T14:54:10;8.50;99.90
37786;DHT22;23625;48.784;9.336;2022-11-20T14:56:36;8.40;99.90
37786;DHT22;23625;48.784;9.336;2022-11-20T14:59:02;8.40;99.90
37786;DHT22;23625;48.784;9.336;2022-11-20T15:01:28;8.40;99.90
37786;DHT22;23625;48.784;9.336;2022-11-20T15:04:07;8.30;99.90
37786;DHT22;23625;48.784;9.336;2022-11-20T15:06:35;8.30;99.90
37786;DHT22;23625;48.784;9.336;2022-11-20T15:09:12;8.20;99.90
37786;DHT22;23625;48.784;9.336;2022-11-20T15:11:38;8.10;99.90
37786;DHT22;23625;48.784;9.336;2022-11-20T15:14:08;8.00;99.90
37786;DHT22;23625;48.784;9.336;2022-11-20T15:16:34;7.90;99.90
37786;DHT22;23625;48.784;9.336;2022-11-20T15:19:00;7.90;99.90
37786;DHT22;23625;48.784;9.336;2022-11-20T15:21:28;7.80;99.90
37786;DHT22;23625;48.784;9.336;2022-11-20T15:23:54;7.70;99.90
37786;DHT22;23625;48.784;9.336;2022-11-20T15:26:24;7.70;99.90
37786;DHT22;23625;48.784;9.336;2022-11-20T15:28:51;7.60;99.90
37786;DHT22;23625;48.784;9.336;2022-11-20T15:31:22;7.60;99.90
37786;DHT22;23625;48.784;9.336;2022-11-20T15:33:49;7.60;99.90
37786;DHT22;23625;48.784;9.336;2022-11-20T15:36:15;7.50;99.90
37786;DHT22;23625;48.784;9.336;2022-11-20T15:38:40;7.40;99.90
37786;DHT22;23625;48.784;9.336;2022-11-20T15:41:06;7.40;99.90
37786;DHT22;23625;48.784;9.336;2022-11-20T15:43:32;7.40;99.90
37786;DHT22;23625;48.784;9.336;2022-11-20T15:53:24;7.20;99.90
37786;DHT22;23625;48.784;9.336;2022-11-20T15:55:49;7.20;99.90
37786;DHT22;23625;48.784;9.336;2022-11-20T15:58:15;7.10;99.90
37786;DHT22;23625;48.784;9.336;2022-11-20T16:00:42;7.10;99.90
37786;DHT22;23625;48.784;9.336;2022-11-20T16:03:12;7.10;99.90
37786;DHT22;23625;48.784;9.336;2022-11-20T16:05:38;7.10;99.90
37786;DHT22;23625;48.784;9.336;2022-11-20T16:08:04;7.10;99.90
37786;DHT22;23625;48.784;9.336;2022-11-20T16:10:29;7.00;99.90
37786;DHT22;23625;48.784;9.336;2022-11-20T16:12:55;7.00;99.90
37786;DHT22;23625;48.784;9.336;2022-11-20T16:15:39;6.90;99.90
37786;DHT22;23625;48.784;9.336;2022-11-20T16:18:12;6.90;99.90
37786;DHT22;23625;48.784;9.336;2022-11-20T16:20:38;6.80;99.90
37786;DHT22;23625;48.784;9.336;2022-11-20T16:23:05;6.70;99.90
37786;DHT22;23625;48.784;9.336;2022-11-20T16:25:31;6.70;99.90
37786;DHT22;23625;48.784;9.336;2022-11-20T16:27:57;6.60;99.90
37786;DHT22;23625;48.784;9.336;2022-11-20T16:30:22;6.50;99.90
37786;DHT22;23625;48.784;9.336;2022-11-20T16:32:48;6.50;99.90
37786;DHT22;23625;48.784;9.336;2022-11-20T16:35:14;6.50;99.90
37786;DHT22;23625;48.784;9.336;2022-11-20T16:37:40;6.40;99.90
37786;DHT22;23625;48.784;9.336;2022-11-20T16:40:06;6.40;99.90
37786;DHT22;23625;48.784;9.336;2022-11-20T16:42:36;6.40;99.90
37786;DHT22;23625;48.784;9.336;2022-11-20T16:45:02;6.40;99.90
37786;DHT22;23625;48.784;9.336;2022-11-20T16:47:30;6.40;99.90
37786;DHT22;23625;48.784;9.336;2022-11-20T16:49:57;6.50;99.90
37786;DHT22;23625;48.784;9.336;2022-11-20T16:52:23;6.50;99.90
37786;DHT22;23625;48.784;9.336;2022-11-20T16:54:48;6.50;99.90
37786;DHT22;23625;48.784;9.336;2022-11-20T16:57:14;6.40;99.90
37786;DHT22;23625;48.784;9.336;2022-11-20T16:59:39;6.50;99.90
37786;DHT22;23625;48.784;9.336;2022-11-20T17:02:05;6.50;99.90
37786;DHT22;23625;48.784;9.336;2022-11-20T17:04:31;6.60;99.90
37786;DHT22;23625;48.784;9.336;2022-11-20T17:06:57;6.60;99.90
37786;DHT22;23625;48.784;9.336;2022-11-20T17:09:22;6.60;99.90
37786;DHT22;23625;48.784;9.336;2022-11-20T17:11:48;6.70;99.90
37786;DHT22;23625;48.784;9.336;2022-11-20T17:14:14;6.60;99.90
37786;DHT22;23625;48.784;9.336;2022-11-20T17:16:39;6.60;99.90
37786;DHT22;23625;48.784;9.336;2022-11-20T17:19:05;6.70;99.90
37786;DHT22;23625;48.784;9.336;2022-11-20T17:21:32;6.70;99.90
37786;DHT22;23625;48.784;9.336;2022-11-20T17:24:05;6.60;99.90
37786;DHT22;23625;48.784;9.336;2022-11-20T17:26:31;6.60;99.90
37786;DHT22;23625;48.784;9.336;2022-11-20T17:29:03;6.60;99.90
37786;DHT22;23625;48.784;9.336;2022-11-20T17:31:30;6.60;99.90
37786;DHT22;23625;48.784;9.336;2022-11-20T17:33:57;6.60;99.90
37786;DHT22;23625;48.784;9.336;2022-11-20T17:36:25;6.60;99.90
37786;DHT22;23625;48.784;9.336;2022-11-20T17:38:51;6.60;99.90
37786;DHT22;23625;48.784;9.336;2022-11-20T17:41:21;6.60;99.90
37786;DHT22;23625;48.784;9.336;2022-11-20T17:43:48;6.70;99.90
37786;DHT22;23625;48.784;9.336;2022-11-20T17:46:16;6.60;99.90
37786;DHT22;23625;48.784;9.336;2022-11-20T17:48:42;6.60;99.90
37786;DHT22;23625;48.784;9.336;2022-11-20T17:51:22;6.70;99.90
37786;DHT22;23625;48.784;9.336;2022-11-20T17:53:51;6.70;99.90
37786;DHT22;23625;48.784;9.336;2022-11-20T17:56:17;6.70;99.90
37786;DHT22;23625;48.784;9.336;2022-11-20T17:59:06;6.80;99.90
37786;DHT22;23625;48.784;9.336;2022-11-20T18:01:32;6.80;99.90
37786;DHT22;23625;48.784;9.336;2022-11-20T18:03:58;6.80;99.90
37786;DHT22;23625;48.784;9.336;2022-11-20T18:06:26;6.80;99.90
37786;DHT22;23625;48.784;9.336;2022-11-20T18:08:52;6.80;99.90
37786;DHT22;23625;48.784;9.336;2022-11-20T18:11:21;6.80;99.90
37786;DHT22;23625;48.784;9.336;2022-11-20T18:13:50;6.90;99.90
37786;DHT22;23625;48.784;9.336;2022-11-20T18:16:40;6.80;99.90
37786;DHT22;23625;48.784;9.336;2022-11-20T18:19:10;6.80;99.90
37786;DHT22;23625;48.784;9.336;2022-11-20T18:21:36;6.80;99.90
37786;DHT22;23625;48.784;9.336;2022-11-20T18:24:02;6.90;99.90
37786;DHT22;23625;48.784;9.336;2022-11-20T18:26:28;6.90;99.90
37786;DHT22;23625;48.784;9.336;2022-11-20T18:28:53;6.90;99.90
37786;DHT22;23625;48.784;9.336;2022-11-20T18:31:19;6.90;99.90
37786;DHT22;23625;48.784;9.336;2022-11-20T18:33:45;6.90;99.90
37786;DHT22;23625;48.784;9.336;2022-11-20T18:36:12;7.00;99.90
37786;DHT22;23625;48.784;9.336;2022-11-20T18:38:43;7.00;99.90
37786;DHT22;23625;48.784;9.336;2022-11-20T18:41:13;7.00;99.90
37786;DHT22;23625;48.784;9.336;2022-11-20T18:43:57;7.00;99.90
37786;DHT22;23625;48.784;9.336;2022-11-20T18:46:42;7.00;99.90
37786;DHT22;23625;48.784;9.336;2022-11-20T18:49:08;7.00;99.90
37786;DHT22;23625;48.784;9.336;2022-11-20T18:51:35;7.00;99.90
37786;DHT22;23625;48.784;9.336;2022-11-20T18:54:02;6.90;99.90
37786;DHT22;23625;48.784;9.336;2022-11-20T18:56:27;7.00;99.90
37786;DHT22;23625;48.784;9.336;2022-11-20T18:58:53;7.00;99.90
37786;DHT22;23625;48.784;9.336;2022-11-20T19:01:19;7.00;99.90
37786;DHT22;23625;48.784;9.336;2022-11-20T19:03:44;7.00;99.90
37786;DHT22;23625;48.784;9.336;2022-11-20T19:06:15;7.00;99.90
37786;DHT22;23625;48.784;9.336;2022-11-20T19:08:40;7.00;99.90
37786;DHT22;23625;48.784;9.336;2022-11-20T19:11:08;7.00;99.90
37786;DHT22;23625;48.784;9.336;2022-11-20T19:13:34;6.90;99.90
37786;DHT22;23625;48.784;9.336;2022-11-20T19:16:08;6.90;99.90
37786;DHT22;23625;48.784;9.336;2022-11-20T19:18:37;6.90;99.90
37786;DHT22;23625;48.784;9.336;2022-11-20T19:21:06;6.90;99.90
37786;DHT22;23625;48.784;9.336;2022-11-20T19:23:33;6.80;99.90
37786;DHT22;23625;48.784;9.336;2022-11-20T19:25:59;6.60;99.90
37786;DHT22;23625;48.784;9.336;2022-11-20T19:28:26;6.60;99.90
37786;DHT22;23625;48.784;9.336;2022-11-20T19:30:52;6.50;99.90
37786;DHT22;23625;48.784;9.336;2022-11-20T19:33:17;6.40;99.90
37786;DHT22;23625;48.784;9.336;2022-11-20T19:35:43;6.40;99.90
37786;DHT22;23625;48.784;9.336;2022-11-20T19:38:08;6.30;99.90
37786;DHT22;23625;48.784;9.336;2022-11-20T19:40:34;6.30;99.90
37786;DHT22;23625;48.784;9.336;2022-11-20T19:43:00;6.40;99.90
37786;DHT22;23625;48.784;9.336;2022-11-20T19:45:26;6.30;99.90
37786;DHT22;23625;48.784;9.336;2022-11-20T19:47:52;6.20;99.90
37786;DHT22;23625;48.784;9.336;2022-11-20T19:50:17;6.20;99.90
37786;DHT22;23625;48.784;9.336;2022-11-20T19:52:43;5.70;99.90
37786;DHT22;23625;48.784;9.336;2022-11-20T19:55:08;6.10;99.90
37786;DHT22;23625;48.784;9.336;2022-11-20T19:57:35;6.10;99.90
37786;DHT22;23625;48.784;9.336;2022-11-20T20:00:00;6.20;99.90
37786;DHT22;23625;48.784;9.336;2022-11-20T20:02:26;6.10;99.90
37786;DHT22;23625;48.784;9.336;2022-11-20T20:04:51;6.20;99.90
37786;DHT22;23625;48.784;9.336;2022-11-20T20:07:17;6.10;99.90
37786;DHT22;23625;48.784;9.336;2022-11-20T20:09:43;6.20;99.90
37786;DHT22;23625;48.784;9.336;2022-11-20T20:12:09;6.20;99.90
37786;DHT22;23625;48.784;9.336;2022-11-20T20:14:35;6.10;99.90
37786;DHT22;23625;48.784;9.336;2022-11-20T20:17:01;6.30;99.90